Time;durP1;ratioP1;P1;durP2;ratioP2;P2;SDS_P1;SDS_P2;PMS_P1;PMS_P2;Temp;Humidity;BMP_temperature;BMP_pressure;BME280_temperature;BME280_humidity;BME280_pressure;Samples;Min_cycle;Max_cycle;Signal;HPM_P1;HPM_P2
2023/04/06 00:00:42;;;;;;;20.02;11.75;;;;;;;5.16;59.85;101720.69;5079951;28;20402;-88
2023/04/06 00:03:08;;;;;;;17.63;9.82;;;;;;;5.11;58.83;101710.22;5081391;28;20546;-87
2023/04/06 00:05:33;;;;;;;16.20;9.88;;;;;;;5.03;60.09;101701.50;5081341;28;20457;-89
2023/04/06 00:07:58;;;;;;;20.33;10.20;;;;;;;5.07;60.05;101712.88;5089621;28;20062;-88
2023/04/06 00:10:24;;;;;;;17.83;10.57;;;;;;;5.17;57.89;101716.31;5086498;28;20032;-88
2023/04/06 00:12:50;;;;;;;16.90;10.02;;;;;;;5.18;59.58;101710.22;5081622;28;20019;-89
2023/04/06 00:15:15;;;;;;;16.35;10.35;;;;;;;5.15;58.47;101707.59;5080481;28;20395;-89
2023/04/06 00:17:40;;;;;;;16.80;10.43;;;;;;;5.13;58.30;101707.63;5074238;28;21774;-89
2023/04/06 00:20:06;;;;;;;18.58;11.15;;;;;;;5.12;57.61;101708.47;5072071;28;20028;-88
2023/04/06 00:22:32;;;;;;;19.63;10.02;;;;;;;5.15;57.66;101713.72;5078542;28;20497;-88
2023/04/06 00:24:57;;;;;;;19.92;10.40;;;;;;;5.06;55.94;101711.13;5073011;28;20016;-88
2023/04/06 00:27:23;;;;;;;17.05;10.05;;;;;;;5.08;55.54;101705.03;5089191;28;20128;-88
2023/04/06 00:29:48;;;;;;;17.23;11.38;;;;;;;4.99;56.08;101689.31;5072186;28;20202;-88
2023/04/06 00:32:13;;;;;;;16.98;10.07;;;;;;;5.01;55.36;101684.06;5071604;28;20484;-88
2023/04/06 00:34:38;;;;;;;16.55;9.73;;;;;;;5.09;56.90;101698.91;5080381;28;20068;-87
2023/04/06 00:37:04;;;;;;;16.38;10.55;;;;;;;5.09;55.33;101695.41;5085452;28;20039;-88
2023/04/06 00:39:29;;;;;;;19.08;11.20;;;;;;;5.08;56.98;101697.16;5083817;28;20035;-89
2023/04/06 00:41:56;;;;;;;15.77;9.80;;;;;;;5.02;58.17;101678.81;5085659;28;20034;-87
2023/04/06 00:44:21;;;;;;;16.85;9.75;;;;;;;5.08;57.61;101694.53;5085752;28;20449;-88
2023/04/06 00:46:47;;;;;;;19.05;10.02;;;;;;;5.04;58.68;101677.06;5072932;28;20028;-89
2023/04/06 00:49:12;;;;;;;19.63;9.98;;;;;;;5.05;57.35;101680.56;5085295;28;20055;-88
2023/04/06 00:51:38;;;;;;;16.63;9.90;;;;;;;5.01;55.41;101679.69;5080757;28;20027;-89
2023/04/06 00:54:03;;;;;;;16.65;10.70;;;;;;;5.03;55.46;101672.69;5090405;28;20028;-88
2023/04/06 00:56:28;;;;;;;16.63;9.80;;;;;;;5.01;55.81;101666.59;5083053;28;20029;-90
2023/04/06 00:58:54;;;;;;;18.17;9.90;;;;;;;4.97;56.05;101658.75;5078018;28;20501;-91
2023/04/06 01:01:19;;;;;;;20.23;10.07;;;;;;;5.00;55.31;101658.75;5082264;28;20034;-91
2023/04/06 01:03:48;;;;;;;18.70;8.77;;;;;;;4.99;54.84;101660.50;5080283;28;20024;-90
2023/04/06 01:06:14;;;;;;;13.25;8.50;;;;;;;4.98;53.51;101652.63;5075919;28;20039;-88
2023/04/06 01:08:39;;;;;;;17.17;9.02;;;;;;;4.99;54.18;101654.34;5092902;28;20028;-87
2023/04/06 01:11:05;;;;;;;16.83;10.25;;;;;;;4.92;54.52;101648.28;5081116;28;20113;-87
2023/04/06 01:13:30;;;;;;;14.43;9.57;;;;;;;4.97;54.72;101648.28;5077044;28;20032;-88
2023/04/06 01:15:55;;;;;;;17.10;9.07;;;;;;;4.97;54.61;101649.13;5089337;28;20115;-88
2023/04/06 01:18:29;;;;;;;16.42;9.68;;;;;;;4.94;56.29;101632.56;5078019;28;20025;-87
2023/04/06 01:20:54;;;;;;;15.65;9.73;;;;;;;4.97;54.38;101646.50;5095789;28;20500;-87
2023/04/06 01:23:19;;;;;;;16.90;10.07;;;;;;;4.99;54.42;101655.25;5069599;28;20028;-88
2023/04/06 01:25:45;;;;;;;17.33;9.50;;;;;;;4.95;54.76;101650.91;5072749;28;20032;-87
2023/04/06 01:28:10;;;;;;;16.33;9.48;;;;;;;5.00;54.47;101653.50;5076433;28;20031;-88
2023/04/06 01:30:35;;;;;;;20.00;10.10;;;;;;;5.00;54.56;101640.41;5079947;28;20028;-87
2023/04/06 01:33:01;;;;;;;18.58;9.15;;;;;;;5.02;57.68;101631.63;5075334;28;20032;-88
2023/04/06 01:35:27;;;;;;;18.98;9.88;;;;;;;5.05;55.75;101639.50;5072969;28;20411;-87
2023/04/06 01:37:53;;;;;;;14.68;8.93;;;;;;;5.03;55.49;101635.13;5081410;28;20051;-88
2023/04/06 01:40:18;;;;;;;17.23;10.13;;;;;;;4.98;57.25;101618.56;5091919;28;20518;-89
2023/04/06 01:42:43;;;;;;;20.65;10.57;;;;;;;5.01;57.69;101624.66;5080320;28;20039;-88
2023/04/06 01:45:09;;;;;;;16.92;9.48;;;;;;;5.01;56.16;101619.41;5091819;28;20039;-88
2023/04/06 01:47:35;;;;;;;14.93;9.32;;;;;;;5.00;59.69;101622.06;5070223;28;20047;-88
2023/04/06 01:50:00;;;;;;;17.70;9.75;;;;;;;4.90;58.18;101618.63;5072270;28;20031;-88
2023/04/06 01:52:26;;;;;;;18.52;9.63;;;;;;;4.97;60.10;101627.31;5076884;28;20033;-88
2023/04/06 01:54:51;;;;;;;17.08;9.95;;;;;;;4.93;60.19;101620.34;5080691;28;20542;-88
2023/04/06 01:57:16;;;;;;;17.48;10.20;;;;;;;4.96;58.75;101612.47;5077827;28;20173;-88
2023/04/06 01:59:41;;;;;;;17.23;10.63;;;;;;;5.08;57.78;101615.91;5082590;28;20177;-88
2023/04/06 02:02:07;;;;;;;15.90;9.88;;;;;;;5.11;55.73;101605.38;5077742;28;20040;-87
2023/04/06 02:04:32;;;;;;;17.25;10.70;;;;;;;5.11;55.67;101600.16;5072529;28;20093;-88
2023/04/06 02:06:57;;;;;;;21.13;10.48;;;;;;;5.18;55.23;101600.13;5073388;28;20035;-88
2023/04/06 02:09:23;;;;;;;22.17;10.95;;;;;;;5.26;55.31;101607.03;5078230;28;20063;-88
2023/04/06 02:11:48;;;;;;;19.52;10.98;;;;;;;5.27;55.38;101590.47;5077099;28;20045;-88
2023/04/06 02:14:13;;;;;;;19.88;11.38;;;;;;;5.24;55.49;101590.47;5081678;28;20040;-88
2023/04/06 02:16:38;;;;;;;18.70;11.32;;;;;;;5.25;54.65;101584.34;5078946;28;20027;-87
2023/04/06 02:19:04;;;;;;;20.52;10.90;;;;;;;5.24;54.56;101586.97;5089505;28;20525;-88
2023/04/06 02:21:29;;;;;;;19.90;11.93;;;;;;;5.22;54.87;101567.75;5087677;28;20024;-88
2023/04/06 02:23:54;;;;;;;23.10;11.68;;;;;;;5.24;54.86;101579.97;5081909;28;20043;-86
2023/04/06 02:26:20;;;;;;;24.42;11.93;;;;;;;5.23;55.18;101583.50;5082108;28;20494;-87
2023/04/06 02:28:45;;;;;;;20.17;12.23;;;;;;;5.22;55.63;101583.47;5081743;28;20032;-88
2023/04/06 02:31:11;;;;;;;20.77;12.52;;;;;;;5.15;55.40;101574.81;5083501;28;20264;-88
2023/04/06 02:33:37;;;;;;;23.70;13.38;;;;;;;5.18;59.16;101584.41;5086063;28;20028;-88
2023/04/06 02:36:02;;;;;;;22.15;11.63;;;;;;;5.11;57.93;101580.94;5080510;28;20028;-88
2023/04/06 02:38:28;;;;;;;24.63;13.38;;;;;;;5.10;58.30;101563.47;5076212;28;20114;-88
2023/04/06 02:40:53;;;;;;;24.60;12.20;;;;;;;5.11;59.93;101567.81;5076706;28;20040;-87
2023/04/06 02:43:19;;;;;;;22.42;12.55;;;;;;;5.16;60.30;101568.66;5084896;28;20471;-88
2023/04/06 02:45:44;;;;;;;23.40;12.77;;;;;;;5.16;60.45;101558.19;5070130;28;20111;-87
2023/04/06 02:48:10;;;;;;;22.27;13.57;;;;;;;5.13;59.66;101550.34;5071489;28;20495;-88
2023/04/06 02:50:35;;;;;;;23.73;14.13;;;;;;;5.15;60.24;101566.94;5088833;28;20016;-88
2023/04/06 02:53:00;;;;;;;20.33;12.55;;;;;;;5.14;60.30;101553.84;5074956;28;20028;-88
2023/04/06 02:55:26;;;;;;;24.27;13.32;;;;;;;5.19;61.00;101547.69;5084365;28;20024;-88
2023/04/06 02:57:51;;;;;;;26.08;13.15;;;;;;;5.22;60.97;101549.41;5079006;28;20033;-88
2023/04/06 03:00:16;;;;;;;21.33;12.88;;;;;;;5.32;57.97;101553.72;5081694;28;20540;-88
2023/04/06 03:02:42;;;;;;;24.65;13.73;;;;;;;5.29;57.57;101541.50;5096774;28;20165;-88
2023/04/06 03:05:07;;;;;;;23.95;13.00;;;;;;;5.39;57.11;101544.91;5085522;28;20024;-88
2023/04/06 03:07:32;;;;;;;22.58;13.07;;;;;;;5.45;57.10;101552.72;5080340;28;20028;-88
2023/04/06 03:09:58;;;;;;;23.02;13.57;;;;;;;5.44;56.88;101539.63;5104307;28;20028;-87
2023/04/06 03:12:23;;;;;;;21.88;13.68;;;;;;;5.45;56.25;101539.63;5088196;28;20104;-88
2023/04/06 03:14:48;;;;;;;20.83;12.93;;;;;;;5.37;57.08;101529.22;5083706;28;20024;-89
2023/04/06 03:17:13;;;;;;;21.27;12.98;;;;;;;5.35;58.27;101536.19;5082404;28;20503;-88
2023/04/06 03:19:39;;;;;;;21.70;12.73;;;;;;;5.41;59.07;101540.56;5080899;28;20025;-88
2023/04/06 03:22:04;;;;;;;23.38;13.60;;;;;;;5.40;61.21;101544.03;5082188;28;20020;-89
2023/04/06 03:24:29;;;;;;;27.23;15.07;;;;;;;5.36;59.44;101523.94;5086809;28;20028;-88
2023/04/06 03:26:55;;;;;;;24.10;14.25;;;;;;;5.41;61.18;101535.31;5085743;28;20457;-88
2023/04/06 03:29:20;;;;;;;23.65;13.68;;;;;;;5.45;58.35;101526.50;5083391;28;20024;-88
2023/04/06 03:31:45;;;;;;;22.88;14.10;;;;;;;5.49;58.12;101537.84;5071158;28;20035;-88
2023/04/06 03:34:11;;;;;;;22.35;13.63;;;;;;;5.45;57.26;101528.25;5076059;28;20116;-88
2023/04/06 03:36:36;;;;;;;22.10;13.48;;;;;;;5.50;57.03;101531.72;5082005;28;20020;-88
2023/04/06 03:39:01;;;;;;;23.73;13.57;;;;;;;5.49;56.87;101528.22;5079749;28;20056;-88
2023/04/06 03:41:26;;;;;;;23.92;12.48;;;;;;;5.50;57.19;101531.72;5080554;28;20035;-88
2023/04/06 03:43:52;;;;;;;24.08;13.65;;;;;;;5.45;56.48;101523.03;5075657;28;20031;-88
2023/04/06 03:46:17;;;;;;;24.52;13.57;;;;;;;5.44;56.87;101514.28;5075778;28;20024;-88
2023/04/06 03:48:43;;;;;;;21.88;13.65;;;;;;;5.44;57.30;101513.41;5085438;28;20043;-87
2023/04/06 03:51:08;;;;;;;26.75;15.05;;;;;;;5.39;57.08;101521.31;5074960;28;20157;-88
2023/04/06 03:53:33;;;;;;;23.25;14.50;;;;;;;5.37;58.45;101518.72;5071472;28;20032;-88
2023/04/06 03:55:59;;;;;;;23.55;15.05;;;;;;;5.28;59.89;101510.06;5071802;28;20024;-88
2023/04/06 03:58:24;;;;;;;24.48;14.50;;;;;;;5.30;60.45;101521.38;5074060;28;20036;-88
2023/04/06 04:00:49;;;;;;;30.33;16.38;;;;;;;5.16;60.60;101511.00;5084154;28;20032;-88
2023/04/06 04:03:14;;;;;;;26.50;15.43;;;;;;;5.09;61.33;101507.56;5088445;28;20283;-88
2023/04/06 04:05:40;;;;;;;25.75;15.27;;;;;;;5.09;61.58;101512.81;5083177;28;20473;-89
2023/04/06 04:08:05;;;;;;;25.80;15.90;;;;;;;5.13;61.64;101518.91;5079302;28;20164;-87
2023/04/06 04:10:30;;;;;;;26.48;15.60;;;;;;;5.15;61.43;101522.38;5078602;28;20058;-89
2023/04/06 04:12:56;;;;;;;27.63;16.13;;;;;;;5.15;61.68;101514.50;5081271;28;20020;-88
2023/04/06 04:15:21;;;;;;;27.48;15.35;;;;;;;5.07;62.21;101509.31;5072777;28;20530;-87
2023/04/06 04:17:48;;;;;;;27.25;15.43;;;;;;;5.13;60.54;101529.41;5071976;28;20024;-88
2023/04/06 04:20:14;;;;;;;26.45;15.35;;;;;;;5.09;60.41;101527.66;5070944;28;20494;-88
2023/04/06 04:22:40;;;;;;;26.73;15.32;;;;;;;4.84;60.46;101516.44;5074480;28;20028;-88
2023/04/06 04:25:05;;;;;;;25.63;15.15;;;;;;;4.88;62.02;101523.41;5073945;28;20032;-88
2023/04/06 04:27:31;;;;;;;25.42;15.07;;;;;;;4.93;60.78;101521.63;5070562;28;20028;-87
2023/04/06 04:29:56;;;;;;;24.85;15.30;;;;;;;4.93;61.78;101515.53;5074716;28;20274;-88
2023/04/06 04:32:21;;;;;;;22.92;14.73;;;;;;;4.99;60.00;101513.75;5069238;28;20036;-88
2023/04/06 04:34:46;;;;;;;25.08;15.52;;;;;;;5.01;58.99;101518.97;5075081;28;20024;-88
2023/04/06 04:37:12;;;;;;;30.63;14.65;;;;;;;4.93;58.78;101518.16;5079775;28;20056;-88
2023/04/06 04:39:37;;;;;;;25.48;14.68;;;;;;;5.09;58.38;101509.31;5077568;28;20051;-88
2023/04/06 04:42:02;;;;;;;29.55;15.55;;;;;;;5.03;58.68;101502.34;5084105;28;20076;-89
2023/04/06 04:44:28;;;;;;;28.25;16.50;;;;;;;5.11;60.32;101516.28;5079514;28;20039;-88
2023/04/06 04:46:53;;;;;;;26.33;14.43;;;;;;;5.11;58.80;101510.16;5089648;27;20104;-88
2023/04/06 04:49:18;;;;;;;26.58;15.52;;;;;;;5.09;58.97;101504.09;5071572;28;20035;-88
2023/04/06 04:51:43;;;;;;;25.13;14.25;;;;;;;5.12;59.81;101504.91;5075495;28;20054;-87
2023/04/06 04:54:09;;;;;;;26.40;15.13;;;;;;;5.10;59.66;101496.19;5076578;28;20036;-88
2023/04/06 04:56:34;;;;;;;25.08;15.00;;;;;;;5.21;59.43;101510.97;5083778;28;20042;-89
2023/04/06 04:58:59;;;;;;;24.85;15.88;;;;;;;5.25;59.98;101513.56;5092484;28;20030;-87
2023/04/06 05:01:25;;;;;;;28.90;15.13;;;;;;;5.28;59.28;101516.16;5076523;28;20040;-88
2023/04/06 05:03:50;;;;;;;25.02;14.93;;;;;;;5.23;58.99;101502.22;5080594;28;20020;-88
2023/04/06 05:06:16;;;;;;;23.95;14.90;;;;;;;5.26;59.31;101509.19;5080805;28;20119;-88
2023/04/06 05:08:42;;;;;;;29.40;15.70;;;;;;;5.31;59.31;101500.41;5080229;28;20031;-89
2023/04/06 05:11:08;;;;;;;31.88;16.20;;;;;;;5.28;57.89;101496.94;5089584;28;20056;-88
2023/04/06 05:13:33;;;;;;;28.20;15.80;;;;;;;5.27;58.52;101509.19;5083737;28;20047;-88
2023/04/06 05:15:58;;;;;;;28.27;15.60;;;;;;;5.29;59.08;101503.94;5089093;28;20115;-88
2023/04/06 05:18:24;;;;;;;25.50;15.88;;;;;;;5.29;58.62;101502.16;5076550;28;20050;-88
2023/04/06 05:20:51;;;;;;;26.13;15.35;;;;;;;5.34;58.82;101510.00;5079307;28;20386;-88
2023/04/06 05:23:16;;;;;;;24.33;13.68;;;;;;;5.40;58.41;101512.56;5086488;28;20636;-88
2023/04/06 05:25:42;;;;;;;28.98;14.90;;;;;;;5.24;58.27;101503.09;5080912;28;20024;-88
2023/04/06 05:28:07;;;;;;;26.63;14.75;;;;;;;5.34;58.75;101510.00;5084055;28;20528;-88
2023/04/06 05:30:32;;;;;;;32.55;15.93;;;;;;;5.37;59.99;101510.00;5077089;28;20044;-88
2023/04/06 05:32:58;;;;;;;26.48;15.13;;;;;;;5.34;59.79;101508.25;5083294;28;20055;-88
2023/04/06 05:35:24;;;;;;;22.45;13.68;;;;;;;5.40;59.33;101506.44;5071611;28;20468;-88
2023/04/06 05:37:49;;;;;;;26.73;14.85;;;;;;;5.37;59.04;101496.88;5073635;28;20290;-88
2023/04/06 05:40:15;;;;;;;23.45;13.50;;;;;;;5.55;58.52;101508.97;5085937;28;20028;-88
2023/04/06 05:42:42;;;;;;;26.23;15.70;;;;;;;5.51;58.14;101510.75;5074211;28;20111;-88
2023/04/06 05:45:08;;;;;;;28.20;14.63;;;;;;;5.54;58.65;101494.09;5087024;28;20412;-88
2023/04/06 05:47:34;;;;;;;24.27;13.70;;;;;;;5.58;57.80;101494.06;5079895;28;20013;-88
2023/04/06 05:49:59;;;;;;;25.70;14.73;;;;;;;5.52;58.99;101485.38;5082025;28;20047;-88
2023/04/06 05:52:25;;;;;;;25.25;14.88;;;;;;;5.63;58.44;101494.00;5081423;28;20664;-88
2023/04/06 05:54:50;;;;;;;26.67;15.13;;;;;;;5.61;58.99;101493.16;5074459;28;20376;-87
2023/04/06 05:57:16;;;;;;;25.15;14.90;;;;;;;5.60;57.78;101496.69;5085265;28;20479;-88
2023/04/06 05:59:42;;;;;;;29.35;16.10;;;;;;;5.67;58.23;101495.72;5080918;28;20414;-88
2023/04/06 06:02:07;;;;;;;26.85;14.63;;;;;;;5.66;58.21;101495.75;5088895;28;20030;-88
2023/04/06 06:04:32;;;;;;;27.02;13.77;;;;;;;5.69;58.13;101498.31;5089484;28;20092;-88
2023/04/06 06:06:58;;;;;;;23.73;14.18;;;;;;;5.81;59.33;101509.56;5087647;28;20024;-88
2023/04/06 06:09:23;;;;;;;28.02;14.75;;;;;;;5.87;57.44;101491.16;5075590;28;20033;-88
2023/04/06 06:11:48;;;;;;;26.95;15.45;;;;;;;5.89;57.02;101496.38;5087227;28;20365;-88
2023/04/06 06:14:15;;;;;;;25.85;14.60;;;;;;;5.89;57.65;101489.38;5085229;28;20031;-88
2023/04/06 06:16:40;;;;;;;29.25;14.93;;;;;;;6.02;57.18;101500.66;5077464;28;20489;-89
2023/04/06 06:19:05;;;;;;;25.67;14.98;;;;;;;6.03;57.54;101505.03;5087119;28;20012;-88
2023/04/06 06:21:31;;;;;;;21.65;12.55;;;;;;;6.08;56.84;101504.97;5083921;28;20058;-87
2023/04/06 06:23:56;;;;;;;23.92;15.32;;;;;;;6.14;59.17;101515.41;5081804;28;20016;-88
2023/04/06 06:26:22;;;;;;;29.75;15.52;;;;;;;6.09;58.98;101501.44;5079574;28;20544;-89
2023/04/06 06:28:47;;;;;;;27.27;15.68;;;;;;;6.21;59.04;101513.59;5079079;28;20054;-88
2023/04/06 06:31:12;;;;;;;24.63;15.02;;;;;;;6.31;58.46;101517.84;5082159;28;20387;-88
2023/04/06 06:33:38;;;;;;;28.88;14.98;;;;;;;6.24;59.08;101492.53;5088179;28;20423;-87
2023/04/06 06:36:03;;;;;;;30.00;16.77;;;;;;;6.23;59.01;101496.91;5084607;28;20082;-88
2023/04/06 06:38:28;;;;;;;26.35;14.38;;;;;;;6.34;59.08;101512.53;5079052;28;20547;-89
2023/04/06 06:40:53;;;;;;;26.63;15.80;;;;;;;6.34;59.71;101505.56;5082915;28;20108;-89
2023/04/06 06:43:19;;;;;;;24.75;14.68;;;;;;;6.42;59.54;101505.44;5079660;28;20021;-89
2023/04/06 06:45:44;;;;;;;25.27;14.60;;;;;;;6.45;58.68;101505.41;5087314;28;20519;-88
2023/04/06 06:48:10;;;;;;;25.10;14.38;;;;;;;6.53;59.26;101506.19;5087266;28;20077;-89
2023/04/06 06:50:36;;;;;;;23.08;14.75;;;;;;;6.55;58.73;101506.16;5089478;28;20034;-88
2023/04/06 06:53:01;;;;;;;22.08;14.77;;;;;;;6.53;58.23;101500.94;5082947;28;20024;-87
2023/04/06 06:55:26;;;;;;;25.10;15.45;;;;;;;6.52;58.20;101493.91;5083955;28;20570;-88
2023/04/06 06:57:52;;;;;;;26.35;15.50;;;;;;;6.64;58.22;101509.53;5082270;28;20073;-89
2023/04/06 07:00:20;;;;;;;26.83;15.05;;;;;;;6.67;57.97;101503.38;5085160;28;20023;-89
2023/04/06 07:02:46;;;;;;;25.10;14.48;;;;;;;6.70;57.68;101494.56;5086344;28;20029;-89
2023/04/06 07:05:11;;;;;;;24.17;14.82;;;;;;;6.76;57.30;101491.84;5079269;28;20142;-90
2023/04/06 07:07:36;;;;;;;23.30;13.68;;;;;;;6.81;57.32;101485.66;5082907;28;20028;-89
2023/04/06 07:10:01;;;;;;;25.92;15.40;;;;;;;6.85;58.53;101496.97;5080387;28;20073;-89
2023/04/06 07:12:27;;;;;;;26.77;15.27;;;;;;;6.92;58.20;101503.91;5069339;28;20205;-89
2023/04/06 07:14:53;;;;;;;25.17;15.45;;;;;;;6.89;60.00;101498.69;5082634;28;20037;-89
2023/04/06 07:17:18;;;;;;;26.23;14.02;;;;;;;6.94;59.47;101495.97;5087338;28;20026;-89
2023/04/06 07:19:45;;;;;;;24.52;15.57;;;;;;;6.93;58.63;101479.34;5089543;28;20189;-89
2023/04/06 07:22:10;;;;;;;27.70;15.00;;;;;;;7.01;58.61;101497.66;5081048;28;20393;-89
2023/04/06 07:24:36;;;;;;;26.05;14.15;;;;;;;7.06;57.29;101486.16;5080991;28;20099;-89
2023/04/06 07:27:01;;;;;;;25.63;14.20;;;;;;;7.16;57.34;101484.25;5085804;28;20027;-89
2023/04/06 07:29:27;;;;;;;23.30;14.50;;;;;;;7.21;56.65;101486.81;5080426;28;20128;-88
2023/04/06 07:31:53;;;;;;;27.67;14.20;;;;;;;7.21;57.11;101489.44;5072369;28;20138;-88
2023/04/06 07:34:19;;;;;;;23.25;14.52;;;;;;;7.27;58.75;101479.69;5082277;28;20028;-89
2023/04/06 07:36:44;;;;;;;26.52;14.55;;;;;;;7.39;58.09;101500.53;5103471;27;20464;-88
2023/04/06 07:39:10;;;;;;;23.73;14.07;;;;;;;7.39;57.12;101476.00;5078895;28;20038;-88
2023/04/06 07:41:35;;;;;;;26.50;14.25;;;;;;;7.43;56.78;101479.44;5085694;28;20044;-90
2023/04/06 07:44:01;;;;;;;23.35;13.95;;;;;;;7.55;57.23;101487.97;5075007;28;20522;-88
2023/04/06 07:46:26;;;;;;;26.48;14.95;;;;;;;7.63;56.71;101478.19;5070557;28;20028;-88
2023/04/06 07:48:51;;;;;;;24.05;14.95;;;;;;;7.67;54.79;101485.13;5082292;28;20048;-89
2023/04/06 07:51:17;;;;;;;25.63;14.02;;;;;;;7.64;55.28;101472.03;5083325;28;20085;-88
2023/04/06 07:53:44;;;;;;;24.70;13.77;;;;;;;7.60;56.98;101474.75;5082759;28;20115;-88
2023/04/06 07:56:09;;;;;;;22.30;13.27;;;;;;;7.65;57.28;101483.44;5075985;28;20531;-89
2023/04/06 07:58:35;;;;;;;26.55;14.52;;;;;;;7.61;56.76;101479.13;5074243;28;20111;-89
2023/04/06 08:01:01;;;;;;;23.45;12.98;;;;;;;7.73;56.56;101480.66;5085470;28;20063;-88
2023/04/06 08:03:26;;;;;;;26.15;13.68;;;;;;;7.79;54.89;101484.06;5084529;28;20035;-89
2023/04/06 08:05:52;;;;;;;23.42;13.43;;;;;;;7.87;56.37;101478.63;5077291;28;20024;-89
2023/04/06 08:08:18;;;;;;;26.42;13.60;;;;;;;7.98;56.86;101481.97;5087098;28;20063;-88
2023/04/06 08:10:43;;;;;;;21.98;12.82;;;;;;;8.00;54.67;101469.63;5082179;28;20044;-91
2023/04/06 08:13:08;;;;;;;28.13;13.20;;;;;;;8.10;52.18;101478.19;5085204;28;20055;-91
2023/04/06 08:15:34;;;;;;;23.35;14.10;;;;;;;8.21;54.06;101485.88;5079038;28;20055;-91
2023/04/06 08:18:00;;;;;;;22.98;13.65;;;;;;;8.20;52.97;101490.28;5090266;28;20055;-89
2023/04/06 08:20:25;;;;;;;22.25;12.55;;;;;;;8.17;51.82;101475.44;5103771;27;20027;-91
2023/04/06 08:22:50;;;;;;;21.63;13.50;;;;;;;8.31;52.09;101482.19;5092313;28;20024;-92
2023/04/06 08:25:15;;;;;;;27.52;13.27;;;;;;;8.40;52.09;101482.91;5072610;28;20459;-90
2023/04/06 08:27:41;;;;;;;26.48;12.52;;;;;;;8.50;51.50;101487.97;5093464;28;20464;-93
2023/04/06 08:30:06;;;;;;;21.60;13.98;;;;;;;8.38;50.91;101483.81;5084701;28;20019;-93
2023/04/06 08:32:32;;;;;;;23.48;12.52;;;;;;;8.45;52.86;101485.44;5077453;28;20024;-91
2023/04/06 08:34:57;;;;;;;24.90;13.63;;;;;;;8.48;51.43;101481.84;5087752;28;20074;-91
2023/04/06 08:37:22;;;;;;;23.70;14.18;;;;;;;8.61;50.10;101488.59;5101773;27;20020;-91
2023/04/06 08:39:48;;;;;;;26.52;13.63;;;;;;;8.65;51.61;101477.94;5086114;28;20028;-90
2023/04/06 08:42:20;;;;;;;22.88;13.35;;;;;;;8.83;52.14;101494.28;5086873;28;20117;-91
2023/04/06 08:44:48;;;;;;;24.75;12.55;;;;;;;8.87;51.82;101480.13;5083101;28;20024;-91
2023/04/06 08:47:13;;;;;;;27.17;13.30;;;;;;;8.99;51.98;101493.00;5086720;28;20361;-92
2023/04/06 08:49:38;;;;;;;28.92;13.98;;;;;;;9.07;52.45;101480.50;5087493;28;20027;-92
2023/04/06 08:52:07;;;;;;;25.73;13.55;;;;;;;9.13;52.56;101480.34;5074481;28;20059;-93
2023/04/06 08:54:32;;;;;;;23.35;14.10;;;;;;;9.05;50.38;101479.69;5098105;28;20020;-93
2023/04/06 08:56:58;;;;;;;25.65;12.85;;;;;;;9.13;51.21;101497.97;5086427;28;20181;-89
2023/04/06 08:59:25;;;;;;;23.23;13.70;;;;;;;9.16;51.43;101482.94;5089528;28;20085;-92
2023/04/06 09:01:51;;;;;;;26.77;14.02;;;;;;;9.30;50.92;101487.88;5079988;28;20123;-90
2023/04/06 09:04:16;;;;;;;24.50;12.50;;;;;;;9.50;51.88;101489.16;5083323;28;20100;-93
2023/04/06 09:06:42;;;;;;;22.95;12.85;;;;;;;9.51;50.83;101488.25;5085302;28;20685;-92
2023/04/06 09:09:08;;;;;;;24.73;14.75;;;;;;;9.43;51.41;101485.81;5085691;28;20024;-93
2023/04/06 09:11:50;;;;;;;29.08;14.07;;;;;;;9.58;52.09;101497.75;5082821;28;20044;-92
2023/04/06 09:14:16;;;;;;;22.55;13.35;;;;;;;9.60;51.78;101483.59;5100766;28;20089;-90
2023/04/06 09:16:45;;;;;;;26.08;12.50;;;;;;;9.85;51.88;101494.41;5087890;28;20032;-93
2023/04/06 09:19:12;;;;;;;23.88;13.85;;;;;;;9.82;52.89;101505.03;5095107;28;20060;-93
2023/04/06 09:21:39;;;;;;;23.83;13.70;;;;;;;9.85;52.58;101501.44;5098501;28;20055;-89
2023/04/06 09:24:06;;;;;;;29.55;13.25;;;;;;;9.95;54.64;101492.38;5081895;28;20517;-92
2023/04/06 09:26:33;;;;;;;28.77;15.20;;;;;;;10.00;54.40;101495.75;5094342;28;20080;-93
2023/04/06 09:29:01;;;;;;;25.08;13.50;;;;;;;10.05;53.34;101493.84;5083294;28;20017;-92
2023/04/06 09:31:29;;;;;;;25.05;13.27;;;;;;;10.15;54.17;101497.97;5086661;28;20125;-90
2023/04/06 09:33:55;;;;;;;24.33;13.52;;;;;;;10.01;54.15;101470.19;5084587;28;20020;-92
2023/04/06 09:36:30;;;;;;;20.25;13.43;;;;;;;10.37;53.80;101500.91;5082901;28;20028;-92
2023/04/06 09:39:00;;;;;;;22.42;13.98;;;;;;;10.34;55.16;101492.19;5087568;28;20600;-94
2023/04/06 09:41:27;;;;;;;20.90;12.95;;;;;;;10.40;55.04;101484.09;5086990;28;20028;-89
2023/04/06 09:44:02;;;;;;;21.63;14.52;;;;;;;10.16;55.09;101486.47;5091317;28;20028;-91
2023/04/06 09:46:31;;;;;;;20.25;12.25;;;;;;;10.22;55.13;101496.91;5083198;28;20028;-94
2023/04/06 09:48:57;;;;;;;20.38;11.32;;;;;;;10.14;55.75;101493.59;5086651;28;20028;-93
2023/04/06 09:51:26;;;;;;;17.98;10.95;;;;;;;10.12;57.58;101492.78;5086503;28;20135;-94
2023/04/06 09:53:57;;;;;;;17.63;11.88;;;;;;;9.91;57.74;101501.28;5084161;28;20047;-93
2023/04/06 09:56:27;;;;;;;21.67;11.98;;;;;;;10.00;58.85;101489.59;5093323;28;20025;-92
2023/04/06 09:59:01;;;;;;;17.85;11.30;;;;;;;10.18;57.79;101497.88;5086880;28;20479;-91
2023/04/06 10:01:29;;;;;;;19.90;12.18;;;;;;;10.21;58.68;101496.91;5077853;28;20026;-91
2023/04/06 10:04:09;;;;;;;19.30;11.38;;;;;;;10.25;58.03;101505.66;5076861;28;20021;-92
2023/04/06 10:06:36;;;;;;;17.70;11.25;;;;;;;10.15;58.93;101500.59;5093949;28;20036;-92
2023/04/06 10:09:04;;;;;;;21.55;12.15;;;;;;;10.08;59.20;101498.19;5079188;28;20032;-91
2023/04/06 10:11:30;;;;;;;21.10;11.35;;;;;;;10.27;59.84;101493.28;5077578;28;20048;-92
2023/04/06 10:13:56;;;;;;;18.48;10.90;;;;;;;10.22;60.09;101501.31;5079336;28;20368;-89
2023/04/06 10:16:22;;;;;;;24.70;12.27;;;;;;;10.17;57.60;101516.44;5070147;28;20043;-91
2023/04/06 10:18:54;;;;;;;21.17;12.23;;;;;;;9.91;59.42;101514.50;5094197;28;20355;-92
2023/04/06 10:21:25;;;;;;;18.38;11.48;;;;;;;9.74;61.89;101509.63;5076591;28;20058;-91
2023/04/06 10:23:53;;;;;;;18.95;10.98;;;;;;;9.57;61.07;101510.09;5080207;28;20024;-93
2023/04/06 10:26:22;;;;;;;15.98;9.38;;;;;;;9.46;63.55;101517.38;5079476;28;20032;-92
2023/04/06 10:28:49;;;;;;;16.88;9.25;;;;;;;9.38;62.83;101522.88;5083526;28;20098;-92
2023/04/06 10:31:15;;;;;;;14.07;8.52;;;;;;;9.38;64.81;101506.19;5094955;28;20037;-92
2023/04/06 10:33:41;;;;;;;14.02;8.75;;;;;;;9.44;65.30;101517.44;5076037;28;20028;-91
2023/04/06 10:36:13;;;;;;;15.73;10.10;;;;;;;9.37;64.10;101509.69;5089032;28;20526;-92
2023/04/06 10:38:39;;;;;;;;;;;;;;;9.56;63.79;101505.72;5084218;28;20024;-90
2023/04/06 10:41:09;;;;;;;15.50;9.70;;;;;;;9.42;66.34;101505.19;5084513;28;20374;-91
2023/04/06 10:43:36;;;;;;;12.85;8.40;;;;;;;9.40;64.44;101504.34;5094460;28;20069;-91
2023/04/06 10:46:02;;;;;;;12.45;7.85;;;;;;;9.44;65.40;101511.28;5076141;28;20028;-88
2023/04/06 10:48:36;;;;;;;14.77;9.05;;;;;;;9.40;66.00;101512.28;5085645;28;20070;-90
2023/04/06 10:51:08;;;;;;;11.98;7.45;;;;;;;9.33;65.09;101508.06;5078405;28;20486;-89
2023/04/06 10:53:34;;;;;;;12.53;8.20;;;;;;;9.30;65.15;101498.44;5080621;28;20485;-88
2023/04/06 10:55:59;;;;;;;16.52;7.55;;;;;;;9.37;66.65;101500.03;5081580;28;20291;-88
2023/04/06 10:58:26;;;;;;;15.43;10.15;;;;;;;9.32;67.02;101509.81;5090351;28;20020;-88
2023/04/06 11:00:52;;;;;;;11.00;7.63;;;;;;;9.32;67.15;101498.38;5086419;28;20020;-88
2023/04/06 11:03:17;;;;;;;12.38;8.02;;;;;;;9.14;68.52;101495.31;5089793;28;20035;-88
2023/04/06 11:05:47;;;;;;;12.05;7.07;;;;;;;9.07;69.27;101485.78;5082377;28;20107;-89
2023/04/06 11:08:24;;;;;;;11.57;7.75;;;;;;;9.13;68.20;101492.69;5087066;28;20697;-87
2023/04/06 11:10:49;;;;;;;11.43;7.50;;;;;;;9.20;68.27;101492.50;5086872;28;20056;-88
2023/04/06 11:13:15;;;;;;;8.75;6.40;;;;;;;9.08;68.70;101482.25;5092680;28;20086;-88